Aviation Digital Data Service (ADDS)

Output produced by METARs form (1701 UTC 16 June 2019)
found at http://www.aviationweather.gov/metar/data/
 
METAR text: RJFK 161200Z 36004KT 330V030 9999 FEW040 BKN/// 18/17 Q1010 RMK 1CU040 A2985
Conditions at: RJFK (KAGOSHIMA AIRPOR, JP) observed 1200 UTC 16 June 2019
Temperature: 18.0°C (64°F)
Dewpoint: 17.0°C (63°F) [RH = 94%]
Pressure (altimeter): 29.82 inches Hg (1010.0 mb)
Winds: from the N (360 degrees) at 5 MPH (4 knots; 2.1 m/s)
Visibility: 6 or more miles (10+ km)
Ceiling: at least 12,000 feet AGL
Clouds: few clouds at 4000 feet AGL
Weather: no significant weather observed at this time

METAR text: RJFK 161100Z 32007KT 9999 FEW040 SCT140 BKN/// 20/17 Q1009
Conditions at: RJFK (KAGOSHIMA AIRPOR, JP) observed 1100 UTC 16 June 2019
Temperature: 20.0°C (68°F)
Dewpoint: 17.0°C (63°F) [RH = 83%]
Pressure (altimeter): 29.79 inches Hg (1009.0 mb)
Winds: from the NW (320 degrees) at 8 MPH (7 knots; 3.6 m/s)
Visibility: 6 or more miles (10+ km)
Ceiling: at least 12,000 feet AGL
Clouds: few clouds at 4000 feet AGL
scattered clouds at 14000 feet AGL
Weather: no significant weather observed at this time

METAR text: RJFK 161000Z 28010KT 9999 FEW040 BKN/// 20/17 Q1009
Conditions at: RJFK (KAGOSHIMA AIRPOR, JP) observed 1000 UTC 16 June 2019
Temperature: 20.0°C (68°F)
Dewpoint: 17.0°C (63°F) [RH = 83%]
Pressure (altimeter): 29.79 inches Hg (1009.0 mb)
Winds: from the W (280 degrees) at 12 MPH (10 knots; 5.1 m/s)
Visibility: 6 or more miles (10+ km)
Ceiling: at least 12,000 feet AGL
Clouds: few clouds at 4000 feet AGL
Weather: no significant weather observed at this time

METAR text: RJFK 160900Z 28011KT 9999 FEW040 BKN/// 22/17 Q1008 RMK 1CU040 A2977
Conditions at: RJFK (KAGOSHIMA AIRPOR, JP) observed 0900 UTC 16 June 2019
Temperature: 22.0°C (72°F)
Dewpoint: 17.0°C (63°F) [RH = 73%]
Pressure (altimeter): 29.76 inches Hg (1008.0 mb)
Winds: from the W (280 degrees) at 13 MPH (11 knots; 5.7 m/s)
Visibility: 6 or more miles (10+ km)
Ceiling: at least 12,000 feet AGL
Clouds: few clouds at 4000 feet AGL
Weather: no significant weather observed at this time

METAR text: RJFK 160800Z 28014KT 9999 FEW030 SCT040 BKN/// 23/17 Q1007 RMK 1CU030 3CU040 A2976
Conditions at: RJFK (KAGOSHIMA AIRPOR, JP) observed 0800 UTC 16 June 2019
Temperature: 23.0°C (73°F)
Dewpoint: 17.0°C (63°F) [RH = 69%]
Pressure (altimeter): 29.73 inches Hg (1007.0 mb)
Winds: from the W (280 degrees) at 16 MPH (14 knots; 7.2 m/s)
Visibility: 6 or more miles (10+ km)
Ceiling: at least 12,000 feet AGL
Clouds: few clouds at 3000 feet AGL
scattered clouds at 4000 feet AGL
Weather: no significant weather observed at this time

METAR text: RJFK 160700Z 26013KT 9999 FEW030 SCT040 24/17 Q1007 RMK 1CU030 3CU040 A2975
Conditions at: RJFK (KAGOSHIMA AIRPOR, JP) observed 0700 UTC 16 June 2019
Temperature: 24.0°C (75°F)
Dewpoint: 17.0°C (63°F) [RH = 65%]
Pressure (altimeter): 29.73 inches Hg (1007.0 mb)
Winds: from the W (260 degrees) at 15 MPH (13 knots; 6.7 m/s)
Visibility: 6 or more miles (10+ km)
Ceiling: at least 12,000 feet AGL
Clouds: few clouds at 3000 feet AGL
scattered clouds at 4000 feet AGL
Weather: no significant weather observed at this time

METAR text: RJFK 160600Z 27012KT 9999 FEW035 SCT040 25/18 Q1007 RMK 1CU035 3CU040 A2974
Conditions at: RJFK (KAGOSHIMA AIRPOR, JP) observed 0600 UTC 16 June 2019
Temperature: 25.0°C (77°F)
Dewpoint: 18.0°C (64°F) [RH = 65%]
Pressure (altimeter): 29.73 inches Hg (1007.0 mb)
Winds: from the W (270 degrees) at 14 MPH (12 knots; 6.2 m/s)
Visibility: 6 or more miles (10+ km)
Ceiling: at least 12,000 feet AGL
Clouds: few clouds at 3500 feet AGL
scattered clouds at 4000 feet AGL
Weather: no significant weather observed at this time

METAR text: RJFK 160500Z 30008KT 260V340 9999 FEW030 BKN040 24/16 Q1006 RMK 1CU030 5CU040 A2973
Conditions at: RJFK (KAGOSHIMA AIRPOR, JP) observed 0500 UTC 16 June 2019
Temperature: 24.0°C (75°F)
Dewpoint: 16.0°C (61°F) [RH = 61%]
Pressure (altimeter): 29.70 inches Hg (1006.0 mb)
Winds: from the WNW (300 degrees) at 9 MPH (8 knots; 4.1 m/s)
Visibility: 6 or more miles (10+ km)
Ceiling: 4000 feet AGL
Clouds: few clouds at 3000 feet AGL
broken clouds at 4000 feet AGL
Weather: no significant weather observed at this time

METAR text: RJFK 160400Z 29010KT 250V310 9999 FEW030 SCT040 25/15 Q1007 RMK 1CU030 4CU040 A2974
Conditions at: RJFK (KAGOSHIMA AIRPOR, JP) observed 0400 UTC 16 June 2019
Temperature: 25.0°C (77°F)
Dewpoint: 15.0°C (59°F) [RH = 54%]
Pressure (altimeter): 29.73 inches Hg (1007.0 mb)
Winds: from the WNW (290 degrees) at 12 MPH (10 knots; 5.1 m/s)
Visibility: 6 or more miles (10+ km)
Ceiling: at least 12,000 feet AGL
Clouds: few clouds at 3000 feet AGL
scattered clouds at 4000 feet AGL
Weather: no significant weather observed at this time

METAR text: RJFK 160300Z 30010KT 9999 FEW030 SCT040 23/15 Q1006 RMK 1CU030 4CU040 A2973
Conditions at: RJFK (KAGOSHIMA AIRPOR, JP) observed 0300 UTC 16 June 2019
Temperature: 23.0°C (73°F)
Dewpoint: 15.0°C (59°F) [RH = 61%]
Pressure (altimeter): 29.70 inches Hg (1006.0 mb)
Winds: from the WNW (300 degrees) at 12 MPH (10 knots; 5.1 m/s)
Visibility: 6 or more miles (10+ km)
Ceiling: at least 12,000 feet AGL
Clouds: few clouds at 3000 feet AGL
scattered clouds at 4000 feet AGL
Weather: no significant weather observed at this time

METAR text: RJFK 160200Z 30007KT 240V330 9999 FEW030 BKN040 22/13 Q1006 RMK 1CU030 5CU040 A2973
Conditions at: RJFK (KAGOSHIMA AIRPOR, JP) observed 0200 UTC 16 June 2019
Temperature: 22.0°C (72°F)
Dewpoint: 13.0°C (55°F) [RH = 57%]
Pressure (altimeter): 29.70 inches Hg (1006.0 mb)
Winds: from the WNW (300 degrees) at 8 MPH (7 knots; 3.6 m/s)
Visibility: 6 or more miles (10+ km)
Ceiling: 4000 feet AGL
Clouds: few clouds at 3000 feet AGL
broken clouds at 4000 feet AGL
Weather: no significant weather observed at this time

METAR text: RJFK 160100Z 30009KT 9999 SCT035 BKN/// 22/14 Q1006 RMK 3CU035 A2972
Conditions at: RJFK (KAGOSHIMA AIRPOR, JP) observed 0100 UTC 16 June 2019
Temperature: 22.0°C (72°F)
Dewpoint: 14.0°C (57°F) [RH = 60%]
Pressure (altimeter): 29.70 inches Hg (1006.0 mb)
Winds: from the WNW (300 degrees) at 10 MPH (9 knots; 4.6 m/s)
Visibility: 6 or more miles (10+ km)
Ceiling: at least 12,000 feet AGL
Clouds: scattered clouds at 3500 feet AGL
Weather: no significant weather observed at this time

METAR text: RJFK 160000Z 31009KT 270V350 9999 FEW025 BKN/// 21/14 Q1005 RMK 2CU025 A2970
Conditions at: RJFK (KAGOSHIMA AIRPOR, JP) observed 0000 UTC 16 June 2019
Temperature: 21.0°C (70°F)
Dewpoint: 14.0°C (57°F) [RH = 64%]
Pressure (altimeter): 29.68 inches Hg (1005.0 mb)
Winds: from the NW (310 degrees) at 10 MPH (9 knots; 4.6 m/s)
Visibility: 6 or more miles (10+ km)
Ceiling: at least 12,000 feet AGL
Clouds: few clouds at 2500 feet AGL
Weather: no significant weather observed at this time

METAR text: RJFK 152300Z 32011KT 9999 FEW015 SCT025 BKN/// 20/14 Q1006
Conditions at: RJFK (KAGOSHIMA AIRPOR, JP) observed 2300 UTC 15 June 2019
Temperature: 20.0°C (68°F)
Dewpoint: 14.0°C (57°F) [RH = 68%]
Pressure (altimeter): 29.70 inches Hg (1006.0 mb)
Winds: from the NW (320 degrees) at 13 MPH (11 knots; 5.7 m/s)
Visibility: 6 or more miles (10+ km)
Ceiling: at least 12,000 feet AGL
Clouds: few clouds at 1500 feet AGL
scattered clouds at 2500 feet AGL
Weather: no significant weather observed at this time

METAR text: RJFK 152200Z 30008KT 9999 FEW015 SCT/// 19/15 Q1005 RMK 1CU015 A2969
Conditions at: RJFK (KAGOSHIMA AIRPOR, JP) observed 2200 UTC 15 June 2019
Temperature: 19.0°C (66°F)
Dewpoint: 15.0°C (59°F) [RH = 78%]
Pressure (altimeter): 29.68 inches Hg (1005.0 mb)
Winds: from the WNW (300 degrees) at 9 MPH (8 knots; 4.1 m/s)
Visibility: 6 or more miles (10+ km)
Ceiling: at least 12,000 feet AGL
Clouds: few clouds at 1500 feet AGL
Weather: no significant weather observed at this time

METAR text: RJFK 152100Z 30004KT 8000 FEW015 BKN/// 17/16 Q1004 RMK 2CU015 A2967
Conditions at: RJFK (KAGOSHIMA AIRPOR, JP) observed 2100 UTC 15 June 2019
Temperature: 17.0°C (63°F)
Dewpoint: 16.0°C (61°F) [RH = 94%]
Pressure (altimeter): 29.65 inches Hg (1004.0 mb)
Winds: from the WNW (300 degrees) at 5 MPH (4 knots; 2.1 m/s)
Visibility: 5 miles ( 8 km)
Ceiling: at least 12,000 feet AGL
Clouds: few clouds at 1500 feet AGL
Weather: no significant weather observed at this time

METAR text: RJFK 151200Z 31006KT 9999 FEW025 18/16 Q1001 RMK 1CU025 A2957
Conditions at: RJFK (KAGOSHIMA AIRPOR, JP) observed 1200 UTC 15 June 2019
Temperature: 18.0°C (64°F)
Dewpoint: 16.0°C (61°F) [RH = 88%]
Pressure (altimeter): 29.56 inches Hg (1001.0 mb)
Winds: from the NW (310 degrees) at 7 MPH (6 knots; 3.1 m/s)
Visibility: 6 or more miles (10+ km)
Ceiling: at least 12,000 feet AGL
Clouds: few clouds at 2500 feet AGL
Weather: no significant weather observed at this time

METAR text: RJFK 151100Z 27005KT 240V300 9999 FEW035 18/16 Q1001 RMK 2CU035 A2956
Conditions at: RJFK (KAGOSHIMA AIRPOR, JP) observed 1100 UTC 15 June 2019
Temperature: 18.0°C (64°F)
Dewpoint: 16.0°C (61°F) [RH = 88%]
Pressure (altimeter): 29.56 inches Hg (1001.0 mb)
Winds: from the W (270 degrees) at 6 MPH (5 knots; 2.6 m/s)
Visibility: 6 or more miles (10+ km)
Ceiling: at least 12,000 feet AGL
Clouds: few clouds at 3500 feet AGL
Weather: no significant weather observed at this time

METAR text: RJFK 151000Z 30012KT 9999 FEW035 20/16 Q0999 RMK 2CU035 A2953
Conditions at: RJFK (KAGOSHIMA AIRPOR, JP) observed 1000 UTC 15 June 2019
Temperature: 20.0°C (68°F)
Dewpoint: 16.0°C (61°F) [RH = 78%]
Pressure (altimeter): 29.50 inches Hg (999.0 mb)
Winds: from the WNW (300 degrees) at 14 MPH (12 knots; 6.2 m/s)
Visibility: 6 or more miles (10+ km)
Ceiling: at least 12,000 feet AGL
Clouds: few clouds at 3500 feet AGL
Weather: no significant weather observed at this time

METAR text: RJFK 150900Z 30014KT 9999 FEW015 SCT025 21/16 Q0998 RMK 1CU015 3CU025 A2949
Conditions at: RJFK (KAGOSHIMA AIRPOR, JP) observed 0900 UTC 15 June 2019
Temperature: 21.0°C (70°F)
Dewpoint: 16.0°C (61°F) [RH = 73%]
Pressure (altimeter): 29.47 inches Hg (998.0 mb)
Winds: from the WNW (300 degrees) at 16 MPH (14 knots; 7.2 m/s)
Visibility: 6 or more miles (10+ km)
Ceiling: at least 12,000 feet AGL
Clouds: few clouds at 1500 feet AGL
scattered clouds at 2500 feet AGL
Weather: no significant weather observed at this time

METAR text: RJFK 150800Z 31019KT 9999 FEW015 SCT025 BKN/// 21/16 Q0997
Conditions at: RJFK (KAGOSHIMA AIRPOR, JP) observed 0800 UTC 15 June 2019
Temperature: 21.0°C (70°F)
Dewpoint: 16.0°C (61°F) [RH = 73%]
Pressure (altimeter): 29.44 inches Hg (997.0 mb)
Winds: from the NW (310 degrees) at 22 MPH (19 knots; 9.8 m/s)
Visibility: 6 or more miles (10+ km)
Ceiling: at least 12,000 feet AGL
Clouds: few clouds at 1500 feet AGL
scattered clouds at 2500 feet AGL
Weather: no significant weather observed at this time

METAR text: RJFK 150700Z 31021KT 9999 FEW015 SCT025 BKN/// 21/16 Q0996 RMK 1CU015 3CU025 A2943
Conditions at: RJFK (KAGOSHIMA AIRPOR, JP) observed 0700 UTC 15 June 2019
Temperature: 21.0°C (70°F)
Dewpoint: 16.0°C (61°F) [RH = 73%]
Pressure (altimeter): 29.41 inches Hg (996.0 mb)
Winds: from the NW (310 degrees) at 24 MPH (21 knots; 10.8 m/s)
Visibility: 6 or more miles (10+ km)
Ceiling: at least 12,000 feet AGL
Clouds: few clouds at 1500 feet AGL
scattered clouds at 2500 feet AGL
Weather: no significant weather observed at this time

METAR text: RJFK 150600Z 32024KT 9999 FEW015 BKN025 BKN/// 22/17 Q0996 RMK 2CU015 5CU025 A2942
Conditions at: RJFK (KAGOSHIMA AIRPOR, JP) observed 0600 UTC 15 June 2019
Temperature: 22.0°C (72°F)
Dewpoint: 17.0°C (63°F) [RH = 73%]
Pressure (altimeter): 29.41 inches Hg (996.0 mb)
Winds: from the NW (320 degrees) at 28 MPH (24 knots; 12.3 m/s)
Visibility: 6 or more miles (10+ km)
Ceiling: 2500 feet AGL
Clouds: few clouds at 1500 feet AGL
broken clouds at 2500 feet AGL
Weather: no significant weather observed at this time

METAR text: RJFK 150511Z 32018G31KT 9999 FEW008 BKN015 BKN140 20/17 Q0996 RMK 1ST008 5CU015 6AC140 A2941
Conditions at: RJFK (KAGOSHIMA AIRPOR, JP) observed 0511 UTC 15 June 2019
Temperature: 20.0°C (68°F)
Dewpoint: 17.0°C (63°F) [RH = 83%]
Pressure (altimeter): 29.41 inches Hg (996.0 mb)
Winds: from the NW (320 degrees) at 21 MPH (18 knots; 9.3 m/s)
gusting to 36 MPH (31 knots; 15.9 m/s)
Visibility: 6 or more miles (10+ km)
Ceiling: 1500 feet AGL
Clouds: few clouds at 800 feet AGL
broken clouds at 1500 feet AGL
broken clouds at 14000 feet AGL
Weather: no significant weather observed at this time

Forecast for: RJFK (KAGOSHIMA AIRPOR, JP)
Text: TAF RJFK 161105Z 1612/1718 30005KT 9999 FEW030
Forecast period: 1200 UTC 16 June 2019 to 0000 UTC 17 June 2019
Forecast type: FROM: standard forecast or significant change
Winds: from the WNW (300 degrees) at 6 MPH (5 knots; 2.6 m/s)
Visibility: 6 or more miles 10+ km)
Ceiling: at least 12,000 feet AGL
Clouds: few clouds at 3000 feet AGL
Weather: no significant weather forecast for this period
Text: BECMG 1700/1703 19010KT
Forecast period: 0000 to 0900 UTC 17 June 2019
Forecast type: BECOMING: Conditions expected to become as follows by 0300 UTC 17 June 2019
Winds: from the S (190 degrees) at 12 MPH (10 knots; 5.1 m/s)
Visibility: 6 or more miles 10+ km)
Ceiling: at least 12,000 feet AGL
Clouds: few clouds at 3000 feet AGL
Weather: no significant weather forecast for this period
Text: BECMG 1709/1712 33005KT
Forecast period: 0900 to 1800 UTC 17 June 2019
Forecast type: BECOMING: Conditions expected to become as follows by 1200 UTC 17 June 2019
Winds: from the NNW (330 degrees) at 6 MPH (5 knots; 2.6 m/s)
Visibility: 6 or more miles 10+ km)
Ceiling: at least 12,000 feet AGL
Clouds: few clouds at 3000 feet AGL
Weather: no significant weather forecast for this period